Погода Катембена 2 недели

Мапуту, Мозамбик

21 февраля-05 марта
  • 21февраля
    Сегодня
    +24°
    +33°
    Ясно и безоблачно
    ВремяПогодаТемператураВлажностьДавлениеВетер, м/сВероятность осадков
    02:00Практически безоблачно+24°C81 %755 мм1.7 м/с5 %
    05:00Практически безоблачно+23°C90 %755 мм1.6 м/с5 %
    08:00Ясно и безоблачно+27°C66 %756 мм2.3 м/с5 %
    11:00Облачно с прояснениями+32°C53 %755 мм3.0 м/с5 %
    14:00Ясно и безоблачно+32°C56 %754 мм6.3 м/с5 %
    17:00Ясно и безоблачно+30°C64 %753 мм6.5 м/с5 %
    20:00Ясно и безоблачно+28°C73 %754 мм5.3 м/с5 %
    23:00Ясно и безоблачно+27°C80 %755 мм4.9 м/с5 %
  • 22февраля
    Четверг
    +24°
    +33°
    Ясно и безоблачно
    ВремяПогодаТемператураВлажностьДавлениеВетер, м/сВероятность осадков
    02:00Практически безоблачно+27°C81 %755 мм3.7 м/с11 %
    05:00Облачно с прояснениями, небольшой дождь+25°C89 %755 мм2.2 м/с48 %
    08:00Облачно с прояснениями+27°C74 %756 мм2.7 м/с40 %
    11:00Облачно с прояснениями+32°C53 %755 мм3.4 м/с15 %
    14:00Ясно и безоблачно+32°C59 %753 мм6.8 м/с5 %
    17:00Облачно с прояснениями+29°C71 %754 мм5.8 м/с3 %
    20:00Облачно с прояснениями+27°C72 %755 мм6.0 м/с8 %
    23:00Облачно с прояснениями+27°C72 %756 мм4.2 м/с12 %
  • 23февраля
    Пятница
    +23°
    +34°
    Ясно и безоблачно
    ВремяПогодаТемператураВлажностьДавлениеВетер, м/сВероятность осадков
    02:00Ясно и безоблачно+26°C74 %755 мм3.2 м/с16 %
    05:00Ясно и безоблачно+25°C83 %756 мм2.1 м/с21 %
    08:00Ясно и безоблачно+28°C62 %757 мм2.7 м/с14 %
    11:00Ясно и безоблачно+32°C51 %756 мм3.2 м/с5 %
    14:00Ясно и безоблачно+33°C53 %754 мм6.2 м/с5 %
    17:00Небольшая облачность+30°C66 %754 мм6.9 м/с5 %
    20:00Ясно и безоблачно+28°C76 %755 мм5.4 м/с8 %
    23:00Ясно и безоблачно+27°C78 %755 мм4.2 м/с6 %
  • 24февраля
    Суббота
    +25°
    +37°
    Ясно и безоблачно
    ВремяПогодаТемператураВлажностьДавлениеВетер, м/сВероятность осадков
    02:00Ясно и безоблачно+26°C80 %755 мм3.3 м/с6 %
    05:00Ясно и безоблачно+24°C81 %756 мм2.2 м/с6 %
    08:00Ясно и безоблачно+28°C61 %757 мм3.9 м/с5 %
    11:00Ясно и безоблачно+35°C46 %755 мм4.1 м/с5 %
    14:00Ясно и безоблачно+37°C54 %753 мм6.6 м/с5 %
    17:00Практически безоблачно+33°C68 %752 мм6.9 м/с5 %
    20:00Ясно и безоблачно+28°C83 %753 мм6.7 м/с4 %
    23:00Ясно и безоблачно+28°C82 %753 мм6.4 м/с5 %
  • 25февраля
    Воскресенье
    +25°
    +37°
    Ясно и безоблачно
    ВремяПогодаТемператураВлажностьДавлениеВетер, м/сВероятность осадков
    02:00Ясно и безоблачно+27°C73 %753 мм3.0 м/с3 %
    05:00Ясно и безоблачно+26°C75 %753 мм3.3 м/с5 %
    08:00Ясно и безоблачно+30°C63 %754 мм4.9 м/с12 %
    11:00Ясно и безоблачно+33°C45 %752 мм5.6 м/с17 %
    14:00Ясно и безоблачно+36°C51 %750 мм7.0 м/с24 %
    17:00Небольшая облачность+31°C65 %750 мм7.5 м/с12 %
    20:00Практически безоблачно+28°C80 %751 мм5.3 м/с42 %
    23:00Небольшая облачность и лёгкий дождик+27°C84 %752 мм2.5 м/с56 %
Мы используем cookies
Соглашаюсь